sensor_id;sensor_type;location;lat;lon;timestamp;P1;durP1;ratioP1;P2;durP2;ratioP2
17127;SDS011;8679;50.842;4.322;2023-08-01T00:00:33;0.55;;;0.40;;
17127;SDS011;8679;50.842;4.322;2023-08-01T00:02:59;5.45;;;1.00;;
17127;SDS011;8679;50.842;4.322;2023-08-01T00:05:25;2.72;;;0.85;;
17127;SDS011;8679;50.842;4.322;2023-08-01T00:07:51;1.38;;;0.82;;
17127;SDS011;8679;50.842;4.322;2023-08-01T00:10:17;1.05;;;0.73;;
17127;SDS011;8679;50.842;4.322;2023-08-01T00:12:43;0.98;;;0.60;;
17127;SDS011;8679;50.842;4.322;2023-08-01T00:15:09;1.52;;;0.63;;
17127;SDS011;8679;50.842;4.322;2023-08-01T00:17:35;0.80;;;0.73;;
17127;SDS011;8679;50.842;4.322;2023-08-01T00:20:01;0.30;;;0.30;;
17127;SDS011;8679;50.842;4.322;2023-08-01T00:22:28;1.10;;;0.82;;
17127;SDS011;8679;50.842;4.322;2023-08-01T00:24:54;0.68;;;0.60;;
17127;SDS011;8679;50.842;4.322;2023-08-01T00:27:19;0.88;;;0.73;;
17127;SDS011;8679;50.842;4.322;2023-08-01T00:29:45;0.65;;;0.43;;
17127;SDS011;8679;50.842;4.322;2023-08-01T00:32:11;0.63;;;0.50;;
17127;SDS011;8679;50.842;4.322;2023-08-01T00:34:37;0.38;;;0.38;;
17127;SDS011;8679;50.842;4.322;2023-08-01T00:37:02;1.02;;;0.50;;
17127;SDS011;8679;50.842;4.322;2023-08-01T00:39:29;0.95;;;0.50;;
17127;SDS011;8679;50.842;4.322;2023-08-01T00:41:54;0.65;;;0.50;;
17127;SDS011;8679;50.842;4.322;2023-08-01T00:44:20;0.57;;;0.40;;
17127;SDS011;8679;50.842;4.322;2023-08-01T00:46:46;0.50;;;0.50;;
17127;SDS011;8679;50.842;4.322;2023-08-01T00:49:12;0.57;;;0.50;;
17127;SDS011;8679;50.842;4.322;2023-08-01T00:51:39;1.08;;;0.70;;
17127;SDS011;8679;50.842;4.322;2023-08-01T00:54:04;2.65;;;0.82;;
17127;SDS011;8679;50.842;4.322;2023-08-01T00:56:30;1.77;;;0.60;;
17127;SDS011;8679;50.842;4.322;2023-08-01T00:58:56;0.88;;;0.60;;
17127;SDS011;8679;50.842;4.322;2023-08-01T01:01:22;1.35;;;1.05;;
17127;SDS011;8679;50.842;4.322;2023-08-01T01:03:47;1.27;;;0.60;;
17127;SDS011;8679;50.842;4.322;2023-08-01T01:06:21;2.70;;;0.77;;
17127;SDS011;8679;50.842;4.322;2023-08-01T01:08:53;0.30;;;0.30;;
17127;SDS011;8679;50.842;4.322;2023-08-01T01:11:20;1.58;;;1.25;;
17127;SDS011;8679;50.842;4.322;2023-08-01T01:13:46;2.92;;;1.00;;
17127;SDS011;8679;50.842;4.322;2023-08-01T01:16:11;1.67;;;0.95;;
17127;SDS011;8679;50.842;4.322;2023-08-01T01:18:37;3.22;;;0.70;;
17127;SDS011;8679;50.842;4.322;2023-08-01T01:21:03;1.00;;;0.60;;
17127;SDS011;8679;50.842;4.322;2023-08-01T01:23:29;0.75;;;0.75;;
17127;SDS011;8679;50.842;4.322;2023-08-01T01:25:56;0.98;;;0.70;;
17127;SDS011;8679;50.842;4.322;2023-08-01T01:28:23;1.25;;;0.75;;
17127;SDS011;8679;50.842;4.322;2023-08-01T01:30:50;0.73;;;0.70;;
17127;SDS011;8679;50.842;4.322;2023-08-01T01:33:18;0.93;;;0.68;;
17127;SDS011;8679;50.842;4.322;2023-08-01T01:35:44;1.63;;;1.10;;
17127;SDS011;8679;50.842;4.322;2023-08-01T01:38:10;2.22;;;0.73;;
17127;SDS011;8679;50.842;4.322;2023-08-01T01:40:35;4.20;;;1.10;;
17127;SDS011;8679;50.842;4.322;2023-08-01T01:43:01;0.80;;;0.63;;
17127;SDS011;8679;50.842;4.322;2023-08-01T01:45:27;3.05;;;1.00;;
17127;SDS011;8679;50.842;4.322;2023-08-01T01:47:52;1.75;;;1.15;;
17127;SDS011;8679;50.842;4.322;2023-08-01T01:50:18;2.10;;;0.85;;
17127;SDS011;8679;50.842;4.322;2023-08-01T01:52:44;1.17;;;0.65;;
17127;SDS011;8679;50.842;4.322;2023-08-01T01:55:10;1.23;;;0.90;;
17127;SDS011;8679;50.842;4.322;2023-08-01T01:57:36;1.58;;;0.80;;
17127;SDS011;8679;50.842;4.322;2023-08-01T02:00:03;1.70;;;1.25;;
17127;SDS011;8679;50.842;4.322;2023-08-01T02:02:30;1.63;;;1.02;;
17127;SDS011;8679;50.842;4.322;2023-08-01T02:04:56;1.90;;;1.42;;
17127;SDS011;8679;50.842;4.322;2023-08-01T02:07:21;2.40;;;1.20;;
17127;SDS011;8679;50.842;4.322;2023-08-01T02:09:47;4.93;;;1.05;;
17127;SDS011;8679;50.842;4.322;2023-08-01T02:12:12;1.45;;;1.13;;
17127;SDS011;8679;50.842;4.322;2023-08-01T02:14:41;1.88;;;1.00;;
17127;SDS011;8679;50.842;4.322;2023-08-01T02:17:07;2.85;;;1.05;;
17127;SDS011;8679;50.842;4.322;2023-08-01T02:19:33;2.80;;;1.20;;
17127;SDS011;8679;50.842;4.322;2023-08-01T02:21:58;2.38;;;1.35;;
17127;SDS011;8679;50.842;4.322;2023-08-01T02:24:24;1.48;;;1.10;;
17127;SDS011;8679;50.842;4.322;2023-08-01T02:26:50;1.33;;;0.95;;
17127;SDS011;8679;50.842;4.322;2023-08-01T02:29:16;1.00;;;0.90;;
17127;SDS011;8679;50.842;4.322;2023-08-01T02:31:42;2.72;;;1.35;;
17127;SDS011;8679;50.842;4.322;2023-08-01T02:34:07;0.90;;;0.80;;
17127;SDS011;8679;50.842;4.322;2023-08-01T02:36:33;1.60;;;1.10;;
17127;SDS011;8679;50.842;4.322;2023-08-01T02:38:59;2.13;;;1.20;;
17127;SDS011;8679;50.842;4.322;2023-08-01T02:41:24;3.63;;;0.95;;
17127;SDS011;8679;50.842;4.322;2023-08-01T02:43:50;1.77;;;1.25;;
17127;SDS011;8679;50.842;4.322;2023-08-01T02:46:16;3.38;;;0.95;;
17127;SDS011;8679;50.842;4.322;2023-08-01T02:48:42;1.08;;;0.93;;
17127;SDS011;8679;50.842;4.322;2023-08-01T02:51:07;2.75;;;1.52;;
17127;SDS011;8679;50.842;4.322;2023-08-01T02:53:36;2.30;;;1.67;;
17127;SDS011;8679;50.842;4.322;2023-08-01T02:56:05;2.58;;;1.40;;
17127;SDS011;8679;50.842;4.322;2023-08-01T02:58:32;7.13;;;1.73;;
17127;SDS011;8679;50.842;4.322;2023-08-01T03:00:58;2.50;;;1.17;;
17127;SDS011;8679;50.842;4.322;2023-08-01T03:03:23;1.17;;;1.08;;
17127;SDS011;8679;50.842;4.322;2023-08-01T03:05:49;1.90;;;1.52;;
17127;SDS011;8679;50.842;4.322;2023-08-01T03:08:15;1.85;;;1.27;;
17127;SDS011;8679;50.842;4.322;2023-08-01T03:10:40;3.40;;;1.98;;
17127;SDS011;8679;50.842;4.322;2023-08-01T03:13:06;1.38;;;1.27;;
17127;SDS011;8679;50.842;4.322;2023-08-01T03:15:32;3.00;;;1.60;;
17127;SDS011;8679;50.842;4.322;2023-08-01T03:17:58;2.38;;;1.30;;
17127;SDS011;8679;50.842;4.322;2023-08-01T03:20:23;3.08;;;1.42;;
17127;SDS011;8679;50.842;4.322;2023-08-01T03:22:49;3.60;;;1.00;;
17127;SDS011;8679;50.842;4.322;2023-08-01T03:25:15;5.20;;;1.42;;
17127;SDS011;8679;50.842;4.322;2023-08-01T03:27:41;3.97;;;1.33;;
17127;SDS011;8679;50.842;4.322;2023-08-01T03:30:06;3.15;;;1.23;;
17127;SDS011;8679;50.842;4.322;2023-08-01T03:32:34;3.40;;;1.88;;
17127;SDS011;8679;50.842;4.322;2023-08-01T03:35:02;3.05;;;1.25;;
17127;SDS011;8679;50.842;4.322;2023-08-01T03:37:28;3.93;;;1.70;;
17127;SDS011;8679;50.842;4.322;2023-08-01T03:39:54;2.80;;;1.33;;
17127;SDS011;8679;50.842;4.322;2023-08-01T03:42:20;1.98;;;1.27;;
17127;SDS011;8679;50.842;4.322;2023-08-01T03:44:45;4.32;;;1.98;;
17127;SDS011;8679;50.842;4.322;2023-08-01T03:47:11;3.67;;;1.57;;
17127;SDS011;8679;50.842;4.322;2023-08-01T03:49:36;1.90;;;1.33;;
17127;SDS011;8679;50.842;4.322;2023-08-01T03:52:04;3.90;;;2.28;;
17127;SDS011;8679;50.842;4.322;2023-08-01T03:54:30;1.75;;;1.20;;
17127;SDS011;8679;50.842;4.322;2023-08-01T03:56:56;4.37;;;1.20;;
17127;SDS011;8679;50.842;4.322;2023-08-01T03:59:22;5.28;;;1.65;;
17127;SDS011;8679;50.842;4.322;2023-08-01T04:01:47;3.37;;;1.57;;
17127;SDS011;8679;50.842;4.322;2023-08-01T04:04:13;3.80;;;2.08;;
17127;SDS011;8679;50.842;4.322;2023-08-01T04:06:39;1.75;;;1.23;;
17127;SDS011;8679;50.842;4.322;2023-08-01T04:09:05;4.10;;;2.17;;
17127;SDS011;8679;50.842;4.322;2023-08-01T04:11:31;6.60;;;2.33;;
17127;SDS011;8679;50.842;4.322;2023-08-01T04:13:57;2.00;;;1.33;;
17127;SDS011;8679;50.842;4.322;2023-08-01T04:16:23;1.58;;;0.90;;
17127;SDS011;8679;50.842;4.322;2023-08-01T04:18:49;4.60;;;1.30;;
17127;SDS011;8679;50.842;4.322;2023-08-01T04:21:15;2.10;;;1.08;;
17127;SDS011;8679;50.842;4.322;2023-08-01T04:23:41;3.00;;;2.10;;
17127;SDS011;8679;50.842;4.322;2023-08-01T04:26:07;3.10;;;1.55;;
17127;SDS011;8679;50.842;4.322;2023-08-01T04:28:33;1.93;;;1.37;;
17127;SDS011;8679;50.842;4.322;2023-08-01T04:30:59;5.17;;;2.40;;
17127;SDS011;8679;50.842;4.322;2023-08-01T04:33:25;3.33;;;1.50;;
17127;SDS011;8679;50.842;4.322;2023-08-01T04:35:51;3.70;;;1.10;;
17127;SDS011;8679;50.842;4.322;2023-08-01T04:38:16;1.10;;;0.87;;
17127;SDS011;8679;50.842;4.322;2023-08-01T04:40:42;1.98;;;1.30;;
17127;SDS011;8679;50.842;4.322;2023-08-01T04:43:09;2.20;;;1.45;;
17127;SDS011;8679;50.842;4.322;2023-08-01T04:45:35;2.55;;;1.33;;
17127;SDS011;8679;50.842;4.322;2023-08-01T04:48:01;12.43;;;2.20;;
17127;SDS011;8679;50.842;4.322;2023-08-01T04:50:27;2.83;;;1.40;;
17127;SDS011;8679;50.842;4.322;2023-08-01T04:52:52;3.40;;;0.87;;
17127;SDS011;8679;50.842;4.322;2023-08-01T04:55:18;1.93;;;1.53;;
17127;SDS011;8679;50.842;4.322;2023-08-01T04:57:44;2.88;;;1.95;;
17127;SDS011;8679;50.842;4.322;2023-08-01T05:00:10;3.90;;;1.10;;
17127;SDS011;8679;50.842;4.322;2023-08-01T05:02:36;4.22;;;1.02;;
17127;SDS011;8679;50.842;4.322;2023-08-01T05:05:02;2.00;;;1.17;;
17127;SDS011;8679;50.842;4.322;2023-08-01T05:07:29;3.72;;;1.33;;
17127;SDS011;8679;50.842;4.322;2023-08-01T05:09:55;4.32;;;1.65;;
17127;SDS011;8679;50.842;4.322;2023-08-01T05:12:20;2.37;;;0.87;;
17127;SDS011;8679;50.842;4.322;2023-08-01T05:14:46;5.63;;;1.77;;
17127;SDS011;8679;50.842;4.322;2023-08-01T05:17:12;3.90;;;1.27;;
17127;SDS011;8679;50.842;4.322;2023-08-01T05:19:38;5.32;;;1.08;;
17127;SDS011;8679;50.842;4.322;2023-08-01T05:22:04;4.13;;;1.40;;
17127;SDS011;8679;50.842;4.322;2023-08-01T05:24:30;3.05;;;1.40;;
17127;SDS011;8679;50.842;4.322;2023-08-01T05:26:55;1.25;;;0.80;;
17127;SDS011;8679;50.842;4.322;2023-08-01T05:29:21;1.92;;;1.23;;
17127;SDS011;8679;50.842;4.322;2023-08-01T05:31:47;2.13;;;1.20;;
17127;SDS011;8679;50.842;4.322;2023-08-01T05:34:12;0.93;;;0.73;;
17127;SDS011;8679;50.842;4.322;2023-08-01T05:36:38;6.72;;;2.58;;
17127;SDS011;8679;50.842;4.322;2023-08-01T05:39:03;4.82;;;1.63;;
17127;SDS011;8679;50.842;4.322;2023-08-01T05:41:29;3.55;;;1.60;;
17127;SDS011;8679;50.842;4.322;2023-08-01T05:43:56;1.95;;;1.00;;
17127;SDS011;8679;50.842;4.322;2023-08-01T05:46:22;3.80;;;1.17;;
17127;SDS011;8679;50.842;4.322;2023-08-01T05:48:48;5.15;;;1.60;;
17127;SDS011;8679;50.842;4.322;2023-08-01T05:51:14;3.05;;;1.92;;
17127;SDS011;8679;50.842;4.322;2023-08-01T05:53:39;1.60;;;1.20;;
17127;SDS011;8679;50.842;4.322;2023-08-01T05:56:05;6.60;;;1.95;;
17127;SDS011;8679;50.842;4.322;2023-08-01T05:58:31;2.65;;;1.35;;
17127;SDS011;8679;50.842;4.322;2023-08-01T06:00:57;6.18;;;2.55;;
17127;SDS011;8679;50.842;4.322;2023-08-01T06:03:23;1.60;;;0.90;;
17127;SDS011;8679;50.842;4.322;2023-08-01T06:05:48;3.50;;;1.25;;
17127;SDS011;8679;50.842;4.322;2023-08-01T06:08:14;3.63;;;1.58;;
17127;SDS011;8679;50.842;4.322;2023-08-01T06:10:40;4.60;;;1.90;;
17127;SDS011;8679;50.842;4.322;2023-08-01T06:13:07;2.92;;;0.95;;
17127;SDS011;8679;50.842;4.322;2023-08-01T06:15:33;2.55;;;1.27;;
17127;SDS011;8679;50.842;4.322;2023-08-01T06:17:59;3.78;;;1.90;;
17127;SDS011;8679;50.842;4.322;2023-08-01T06:20:24;1.75;;;1.15;;
17127;SDS011;8679;50.842;4.322;2023-08-01T06:22:50;3.28;;;1.33;;
17127;SDS011;8679;50.842;4.322;2023-08-01T06:25:16;2.75;;;1.08;;
17127;SDS011;8679;50.842;4.322;2023-08-01T06:27:42;2.05;;;1.08;;
17127;SDS011;8679;50.842;4.322;2023-08-01T06:30:08;5.10;;;2.25;;
17127;SDS011;8679;50.842;4.322;2023-08-01T06:32:33;4.65;;;2.33;;
17127;SDS011;8679;50.842;4.322;2023-08-01T06:34:59;2.45;;;1.30;;
17127;SDS011;8679;50.842;4.322;2023-08-01T06:37:25;5.22;;;1.55;;
17127;SDS011;8679;50.842;4.322;2023-08-01T06:39:50;1.08;;;0.77;;
17127;SDS011;8679;50.842;4.322;2023-08-01T06:42:16;3.33;;;1.13;;
17127;SDS011;8679;50.842;4.322;2023-08-01T06:44:42;1.77;;;0.90;;
17127;SDS011;8679;50.842;4.322;2023-08-01T06:47:07;1.15;;;0.85;;
17127;SDS011;8679;50.842;4.322;2023-08-01T06:49:33;1.75;;;1.00;;
17127;SDS011;8679;50.842;4.322;2023-08-01T06:51:59;2.33;;;1.48;;
17127;SDS011;8679;50.842;4.322;2023-08-01T06:54:24;2.38;;;1.27;;
17127;SDS011;8679;50.842;4.322;2023-08-01T06:56:50;3.33;;;1.00;;
17127;SDS011;8679;50.842;4.322;2023-08-01T06:59:16;2.83;;;1.70;;
17127;SDS011;8679;50.842;4.322;2023-08-01T07:01:42;5.53;;;2.03;;
17127;SDS011;8679;50.842;4.322;2023-08-01T07:04:09;2.75;;;1.30;;
17127;SDS011;8679;50.842;4.322;2023-08-01T07:06:35;2.45;;;1.60;;
17127;SDS011;8679;50.842;4.322;2023-08-01T07:09:01;2.58;;;1.15;;
17127;SDS011;8679;50.842;4.322;2023-08-01T07:11:26;2.35;;;1.23;;
17127;SDS011;8679;50.842;4.322;2023-08-01T07:13:52;1.85;;;1.42;;
17127;SDS011;8679;50.842;4.322;2023-08-01T07:16:18;3.15;;;1.35;;
17127;SDS011;8679;50.842;4.322;2023-08-01T07:18:44;2.70;;;1.33;;
17127;SDS011;8679;50.842;4.322;2023-08-01T07:21:09;1.55;;;1.25;;
17127;SDS011;8679;50.842;4.322;2023-08-01T07:23:35;1.83;;;0.98;;
17127;SDS011;8679;50.842;4.322;2023-08-01T07:26:01;2.15;;;1.58;;
17127;SDS011;8679;50.842;4.322;2023-08-01T07:28:27;3.75;;;1.40;;
17127;SDS011;8679;50.842;4.322;2023-08-01T07:31:02;3.80;;;1.30;;
17127;SDS011;8679;50.842;4.322;2023-08-01T07:33:32;2.30;;;1.27;;
17127;SDS011;8679;50.842;4.322;2023-08-01T07:35:59;2.03;;;1.23;;
17127;SDS011;8679;50.842;4.322;2023-08-01T07:38:25;3.60;;;0.80;;
17127;SDS011;8679;50.842;4.322;2023-08-01T07:40:52;3.25;;;1.15;;
17127;SDS011;8679;50.842;4.322;2023-08-01T07:43:17;2.20;;;1.08;;
17127;SDS011;8679;50.842;4.322;2023-08-01T07:45:44;2.85;;;1.27;;
17127;SDS011;8679;50.842;4.322;2023-08-01T07:48:10;1.45;;;1.08;;
17127;SDS011;8679;50.842;4.322;2023-08-01T07:50:36;9.48;;;2.08;;
17127;SDS011;8679;50.842;4.322;2023-08-01T07:53:01;2.88;;;1.95;;
17127;SDS011;8679;50.842;4.322;2023-08-01T07:55:27;3.17;;;0.98;;
17127;SDS011;8679;50.842;4.322;2023-08-01T07:57:52;3.15;;;1.55;;
17127;SDS011;8679;50.842;4.322;2023-08-01T08:00:18;3.38;;;1.00;;
17127;SDS011;8679;50.842;4.322;2023-08-01T08:02:44;2.60;;;0.98;;
17127;SDS011;8679;50.842;4.322;2023-08-01T08:05:11;3.95;;;0.93;;
17127;SDS011;8679;50.842;4.322;2023-08-01T08:07:37;4.75;;;0.73;;
17127;SDS011;8679;50.842;4.322;2023-08-01T08:10:04;2.13;;;1.10;;
17127;SDS011;8679;50.842;4.322;2023-08-01T08:12:30;1.88;;;0.95;;
17127;SDS011;8679;50.842;4.322;2023-08-01T08:14:56;6.75;;;1.02;;
17127;SDS011;8679;50.842;4.322;2023-08-01T08:17:21;6.22;;;1.83;;
17127;SDS011;8679;50.842;4.322;2023-08-01T08:19:47;1.48;;;0.70;;
17127;SDS011;8679;50.842;4.322;2023-08-01T08:22:13;3.75;;;1.58;;
17127;SDS011;8679;50.842;4.322;2023-08-01T08:24:38;1.90;;;1.30;;
17127;SDS011;8679;50.842;4.322;2023-08-01T08:27:04;4.93;;;0.80;;
17127;SDS011;8679;50.842;4.322;2023-08-01T08:29:31;1.67;;;0.70;;
17127;SDS011;8679;50.842;4.322;2023-08-01T08:31:57;3.00;;;1.05;;
17127;SDS011;8679;50.842;4.322;2023-08-01T08:34:23;4.88;;;0.93;;
17127;SDS011;8679;50.842;4.322;2023-08-01T08:36:48;2.13;;;1.10;;
17127;SDS011;8679;50.842;4.322;2023-08-01T08:39:17;1.58;;;1.08;;
17127;SDS011;8679;50.842;4.322;2023-08-01T08:41:47;2.80;;;1.05;;
17127;SDS011;8679;50.842;4.322;2023-08-01T08:44:17;3.70;;;1.27;;
17127;SDS011;8679;50.842;4.322;2023-08-01T08:46:47;1.73;;;0.70;;
17127;SDS011;8679;50.842;4.322;2023-08-01T08:49:15;1.15;;;0.93;;
17127;SDS011;8679;50.842;4.322;2023-08-01T08:51:42;1.90;;;0.90;;
17127;SDS011;8679;50.842;4.322;2023-08-01T08:54:10;3.40;;;0.77;;
17127;SDS011;8679;50.842;4.322;2023-08-01T08:56:36;2.33;;;0.88;;
17127;SDS011;8679;50.842;4.322;2023-08-01T08:59:03;1.52;;;0.90;;
17127;SDS011;8679;50.842;4.322;2023-08-01T09:01:29;2.95;;;1.20;;
17127;SDS011;8679;50.842;4.322;2023-08-01T09:03:57;0.40;;;0.40;;
17127;SDS011;8679;50.842;4.322;2023-08-01T09:06:24;1.42;;;0.73;;
17127;SDS011;8679;50.842;4.322;2023-08-01T09:08:58;2.92;;;0.93;;
17127;SDS011;8679;50.842;4.322;2023-08-01T09:11:29;1.58;;;0.90;;
17127;SDS011;8679;50.842;4.322;2023-08-01T09:14:00;1.08;;;0.68;;
17127;SDS011;8679;50.842;4.322;2023-08-01T09:16:26;2.05;;;0.90;;
17127;SDS011;8679;50.842;4.322;2023-08-01T09:18:52;2.75;;;0.90;;
17127;SDS011;8679;50.842;4.322;2023-08-01T09:21:21;1.27;;;0.63;;
17127;SDS011;8679;50.842;4.322;2023-08-01T09:23:47;2.72;;;0.65;;
17127;SDS011;8679;50.842;4.322;2023-08-01T09:26:16;2.50;;;0.60;;
17127;SDS011;8679;50.842;4.322;2023-08-01T09:28:43;5.97;;;1.00;;
17127;SDS011;8679;50.842;4.322;2023-08-01T09:31:09;2.28;;;0.50;;
17127;SDS011;8679;50.842;4.322;2023-08-01T09:33:42;1.02;;;0.50;;
17127;SDS011;8679;50.842;4.322;2023-08-01T09:36:08;0.57;;;0.40;;
17127;SDS011;8679;50.842;4.322;2023-08-01T09:38:34;1.00;;;0.63;;
17127;SDS011;8679;50.842;4.322;2023-08-01T09:41:02;1.40;;;0.50;;
17127;SDS011;8679;50.842;4.322;2023-08-01T09:43:34;1.80;;;0.57;;
17127;SDS011;8679;50.842;4.322;2023-08-01T09:46:01;0.70;;;0.55;;
17127;SDS011;8679;50.842;4.322;2023-08-01T09:48:28;0.47;;;0.40;;
17127;SDS011;8679;50.842;4.322;2023-08-01T09:51:13;1.65;;;0.63;;
17127;SDS011;8679;50.842;4.322;2023-08-01T09:53:47;1.05;;;0.63;;
17127;SDS011;8679;50.842;4.322;2023-08-01T09:56:15;3.33;;;0.80;;
17127;SDS011;8679;50.842;4.322;2023-08-01T09:58:45;2.03;;;0.75;;
17127;SDS011;8679;50.842;4.322;2023-08-01T10:01:12;3.13;;;1.02;;
17127;SDS011;8679;50.842;4.322;2023-08-01T10:03:41;1.15;;;0.60;;
17127;SDS011;8679;50.842;4.322;2023-08-01T10:06:14;2.40;;;1.27;;
17127;SDS011;8679;50.842;4.322;2023-08-01T10:08:46;0.82;;;0.40;;
17127;SDS011;8679;50.842;4.322;2023-08-01T10:11:14;0.30;;;0.30;;
17127;SDS011;8679;50.842;4.322;2023-08-01T10:13:41;1.00;;;0.60;;
17127;SDS011;8679;50.842;4.322;2023-08-01T10:16:08;1.30;;;0.70;;
17127;SDS011;8679;50.842;4.322;2023-08-01T10:18:34;2.80;;;0.98;;
17127;SDS011;8679;50.842;4.322;2023-08-01T10:21:02;0.50;;;0.47;;
17127;SDS011;8679;50.842;4.322;2023-08-01T10:23:33;1.23;;;0.63;;
17127;SDS011;8679;50.842;4.322;2023-08-01T10:26:00;4.35;;;0.55;;
17127;SDS011;8679;50.842;4.322;2023-08-01T10:28:33;0.95;;;0.60;;
17127;SDS011;8679;50.842;4.322;2023-08-01T10:31:12;0.40;;;0.40;;
17127;SDS011;8679;50.842;4.322;2023-08-01T10:33:40;0.65;;;0.40;;
17127;SDS011;8679;50.842;4.322;2023-08-01T10:36:17;0.73;;;0.45;;
17127;SDS011;8679;50.842;4.322;2023-08-01T10:38:47;1.50;;;0.70;;
17127;SDS011;8679;50.842;4.322;2023-08-01T10:41:20;2.58;;;0.70;;
17127;SDS011;8679;50.842;4.322;2023-08-01T10:43:47;1.45;;;0.85;;
17127;SDS011;8679;50.842;4.322;2023-08-01T10:46:13;2.50;;;0.35;;
17127;SDS011;8679;50.842;4.322;2023-08-01T10:48:49;0.93;;;0.60;;
17127;SDS011;8679;50.842;4.322;2023-08-01T10:51:15;1.67;;;0.52;;
17127;SDS011;8679;50.842;4.322;2023-08-01T10:53:41;1.50;;;0.60;;
17127;SDS011;8679;50.842;4.322;2023-08-01T10:56:07;0.55;;;0.35;;
17127;SDS011;8679;50.842;4.322;2023-08-01T10:58:33;1.65;;;0.40;;
17127;SDS011;8679;50.842;4.322;2023-08-01T11:00:59;0.85;;;0.57;;
17127;SDS011;8679;50.842;4.322;2023-08-01T11:03:38;3.95;;;0.55;;
17127;SDS011;8679;50.842;4.322;2023-08-01T11:06:04;0.60;;;0.50;;
17127;SDS011;8679;50.842;4.322;2023-08-01T11:08:37;0.47;;;0.45;;
17127;SDS011;8679;50.842;4.322;2023-08-01T11:11:05;2.13;;;0.50;;
17127;SDS011;8679;50.842;4.322;2023-08-01T11:13:32;1.10;;;0.47;;
17127;SDS011;8679;50.842;4.322;2023-08-01T11:16:00;1.10;;;0.47;;
17127;SDS011;8679;50.842;4.322;2023-08-01T11:18:27;1.83;;;0.40;;
17127;SDS011;8679;50.842;4.322;2023-08-01T11:20:53;1.27;;;0.55;;
17127;SDS011;8679;50.842;4.322;2023-08-01T11:23:26;1.50;;;0.57;;
17127;SDS011;8679;50.842;4.322;2023-08-01T11:25:53;3.20;;;1.05;;
17127;SDS011;8679;50.842;4.322;2023-08-01T11:28:20;0.30;;;0.30;;
17127;SDS011;8679;50.842;4.322;2023-08-01T11:30:48;0.45;;;0.40;;
17127;SDS011;8679;50.842;4.322;2023-08-01T11:33:14;2.83;;;0.52;;
17127;SDS011;8679;50.842;4.322;2023-08-01T11:35:40;1.83;;;0.77;;
17127;SDS011;8679;50.842;4.322;2023-08-01T11:38:06;2.13;;;0.60;;
17127;SDS011;8679;50.842;4.322;2023-08-01T11:40:32;0.73;;;0.55;;
17127;SDS011;8679;50.842;4.322;2023-08-01T11:42:59;0.45;;;0.45;;
17127;SDS011;8679;50.842;4.322;2023-08-01T11:45:24;1.20;;;0.47;;
17127;SDS011;8679;50.842;4.322;2023-08-01T11:47:51;0.85;;;0.85;;
17127;SDS011;8679;50.842;4.322;2023-08-01T11:50:23;3.20;;;0.63;;
17127;SDS011;8679;50.842;4.322;2023-08-01T11:52:49;1.27;;;0.50;;
17127;SDS011;8679;50.842;4.322;2023-08-01T11:55:26;0.57;;;0.30;;
17127;SDS011;8679;50.842;4.322;2023-08-01T11:57:56;1.50;;;0.45;;
17127;SDS011;8679;50.842;4.322;2023-08-01T12:00:23;1.15;;;0.32;;
17127;SDS011;8679;50.842;4.322;2023-08-01T12:03:06;7.32;;;0.88;;
17127;SDS011;8679;50.842;4.322;2023-08-01T12:05:33;0.82;;;0.40;;
17127;SDS011;8679;50.842;4.322;2023-08-01T12:08:09;1.17;;;0.30;;
17127;SDS011;8679;50.842;4.322;2023-08-01T12:10:42;0.60;;;0.60;;
17127;SDS011;8679;50.842;4.322;2023-08-01T12:13:19;0.70;;;0.57;;
17127;SDS011;8679;50.842;4.322;2023-08-01T12:15:48;0.65;;;0.45;;
17127;SDS011;8679;50.842;4.322;2023-08-01T12:18:21;1.10;;;0.60;;
17127;SDS011;8679;50.842;4.322;2023-08-01T12:20:51;0.80;;;0.63;;
17127;SDS011;8679;50.842;4.322;2023-08-01T12:23:18;1.88;;;0.40;;
17127;SDS011;8679;50.842;4.322;2023-08-01T12:25:44;0.80;;;0.40;;
17127;SDS011;8679;50.842;4.322;2023-08-01T12:28:11;1.17;;;0.68;;
17127;SDS011;8679;50.842;4.322;2023-08-01T12:30:39;0.95;;;0.57;;
17127;SDS011;8679;50.842;4.322;2023-08-01T12:33:06;0.95;;;0.32;;
17127;SDS011;8679;50.842;4.322;2023-08-01T12:35:32;0.90;;;0.50;;
17127;SDS011;8679;50.842;4.322;2023-08-01T12:37:58;1.00;;;0.55;;
17127;SDS011;8679;50.842;4.322;2023-08-01T12:40:24;0.52;;;0.40;;
17127;SDS011;8679;50.842;4.322;2023-08-01T12:42:51;0.95;;;0.85;;
17127;SDS011;8679;50.842;4.322;2023-08-01T12:45:16;0.63;;;0.52;;
17127;SDS011;8679;50.842;4.322;2023-08-01T12:47:42;1.55;;;0.82;;
17127;SDS011;8679;50.842;4.322;2023-08-01T12:50:08;0.60;;;0.35;;
17127;SDS011;8679;50.842;4.322;2023-08-01T12:52:34;0.60;;;0.60;;
17127;SDS011;8679;50.842;4.322;2023-08-01T12:55:00;1.77;;;0.50;;
17127;SDS011;8679;50.842;4.322;2023-08-01T12:57:26;1.63;;;0.52;;
17127;SDS011;8679;50.842;4.322;2023-08-01T12:59:51;0.30;;;0.30;;
17127;SDS011;8679;50.842;4.322;2023-08-01T13:02:17;0.57;;;0.30;;
17127;SDS011;8679;50.842;4.322;2023-08-01T13:04:42;1.23;;;0.70;;
17127;SDS011;8679;50.842;4.322;2023-08-01T13:07:08;1.00;;;0.43;;
17127;SDS011;8679;50.842;4.322;2023-08-01T13:09:34;0.50;;;0.50;;
17127;SDS011;8679;50.842;4.322;2023-08-01T13:11:59;0.30;;;0.30;;
17127;SDS011;8679;50.842;4.322;2023-08-01T13:14:25;1.00;;;0.73;;
17127;SDS011;8679;50.842;4.322;2023-08-01T13:16:51;1.75;;;0.60;;
17127;SDS011;8679;50.842;4.322;2023-08-01T13:19:17;2.25;;;0.95;;
17127;SDS011;8679;50.842;4.322;2023-08-01T13:21:43;4.88;;;1.27;;
17127;SDS011;8679;50.842;4.322;2023-08-01T13:24:09;0.75;;;0.60;;
17127;SDS011;8679;50.842;4.322;2023-08-01T13:26:34;1.02;;;0.55;;
17127;SDS011;8679;50.842;4.322;2023-08-01T13:29:01;1.10;;;0.55;;
17127;SDS011;8679;50.842;4.322;2023-08-01T13:31:27;1.15;;;0.73;;
17127;SDS011;8679;50.842;4.322;2023-08-01T13:33:53;0.60;;;0.40;;
17127;SDS011;8679;50.842;4.322;2023-08-01T13:36:20;0.88;;;0.45;;
17127;SDS011;8679;50.842;4.322;2023-08-01T13:38:46;1.65;;;0.60;;
17127;SDS011;8679;50.842;4.322;2023-08-01T13:41:12;3.63;;;0.38;;
17127;SDS011;8679;50.842;4.322;2023-08-01T13:43:38;2.58;;;0.90;;
17127;SDS011;8679;50.842;4.322;2023-08-01T13:46:37;2.63;;;0.63;;
17127;SDS011;8679;50.842;4.322;2023-08-01T13:48:56;1.15;;;0.45;;
17127;SDS011;8679;50.842;4.322;2023-08-01T13:51:22;0.38;;;0.30;;
17127;SDS011;8679;50.842;4.322;2023-08-01T13:53:48;0.20;;;0.20;;
17127;SDS011;8679;50.842;4.322;2023-08-01T13:56:13;1.65;;;0.35;;
17127;SDS011;8679;50.842;4.322;2023-08-01T13:58:39;0.47;;;0.43;;
17127;SDS011;8679;50.842;4.322;2023-08-01T14:01:06;0.77;;;0.40;;
17127;SDS011;8679;50.842;4.322;2023-08-01T14:03:36;0.73;;;0.60;;
17127;SDS011;8679;50.842;4.322;2023-08-01T14:06:06;0.47;;;0.35;;
17127;SDS011;8679;50.842;4.322;2023-08-01T14:08:36;0.95;;;0.40;;
17127;SDS011;8679;50.842;4.322;2023-08-01T14:11:03;2.53;;;0.25;;
17127;SDS011;8679;50.842;4.322;2023-08-01T14:13:30;4.18;;;0.40;;
17127;SDS011;8679;50.842;4.322;2023-08-01T14:15:56;3.65;;;1.48;;
17127;SDS011;8679;50.842;4.322;2023-08-01T14:18:22;1.00;;;0.40;;
17127;SDS011;8679;50.842;4.322;2023-08-01T14:20:48;0.20;;;0.20;;
17127;SDS011;8679;50.842;4.322;2023-08-01T14:23:14;0.30;;;0.30;;
17127;SDS011;8679;50.842;4.322;2023-08-01T14:25:40;0.55;;;0.30;;
17127;SDS011;8679;50.842;4.322;2023-08-01T14:28:05;0.77;;;0.50;;
17127;SDS011;8679;50.842;4.322;2023-08-01T14:30:31;0.77;;;0.30;;
17127;SDS011;8679;50.842;4.322;2023-08-01T14:33:04;1.73;;;0.60;;
17127;SDS011;8679;50.842;4.322;2023-08-01T14:35:34;0.47;;;0.40;;
17127;SDS011;8679;50.842;4.322;2023-08-01T14:38:03;0.52;;;0.38;;
17127;SDS011;8679;50.842;4.322;2023-08-01T14:40:29;0.40;;;0.38;;
17127;SDS011;8679;50.842;4.322;2023-08-01T14:42:55;2.65;;;0.93;;
17127;SDS011;8679;50.842;4.322;2023-08-01T14:45:22;2.85;;;0.77;;
17127;SDS011;8679;50.842;4.322;2023-08-01T14:47:48;0.95;;;0.32;;
17127;SDS011;8679;50.842;4.322;2023-08-01T14:50:14;0.50;;;0.45;;
17127;SDS011;8679;50.842;4.322;2023-08-01T14:52:40;2.20;;;0.60;;
17127;SDS011;8679;50.842;4.322;2023-08-01T14:55:06;1.27;;;0.45;;
17127;SDS011;8679;50.842;4.322;2023-08-01T14:57:33;1.67;;;0.50;;